Wausau, Florida
Current Conditions -  °F | °C
As of 7:58 AM on Saturday 22 Nov 2014 (Local Time) from K1J0 Reporting Station
Broken Clouds Broken Clouds  
Wind Chill: 56°   Ceiling: 6000
Heat Index: 56°   Visibility: 10mi
Dew Point: 46°   Wind: 8mph
Humidity: 69%   Direction: 70°ENE
Pressure: 30.33"   Gusts: NA
Location:  30.63°N, 85.59°W
Report Text: K1J0 221358Z AUTO 07007KT 10SM BKN060 13/08 A3033 RMK AO2 SLP255 T01330078
Loading
Personal Weather Stations






























Interactive Weather Map New forecast layout! Learn more

10-Day Weather Forecast

Advertisements
Track Severe Weather on mobile